Saunders, Virginia
Current Conditions -  °F | °C
As of 5:54 PM on Saturday 25 Oct 2014 (Local Time) from KRIC Reporting Station
Clear Clear  
Wind Chill: 68°   Ceiling: Unl
Heat Index: 68°   Visibility: 10mi
Dew Point: 40°   Wind: 9mph
Humidity: 36%   Direction: 230°SW
Pressure: 29.83"   Gusts: NA
Location:  37.5498°N, 77.4598°W
Report Text: KRIC 252154Z 23008KT 10SM CLR 20/04 A2983 RMK AO2 SLP107 T02000044
Loading
Personal Weather Stations






























Interactive Weather Map
Tropical Storm Tracking
New forecast layout! Learn more

10-Day Weather Forecast

Advertisements
Track Severe Weather on mobile